Time;durP1;ratioP1;P1;durP2;ratioP2;P2;SDS_P1;SDS_P2;PMS_P1;PMS_P2;Temp;Humidity;BMP_temperature;BMP_pressure;BME280_temperature;BME280_humidity;BME280_pressure;Samples;Min_cycle;Max_cycle;Signal;HPM_P1;HPM_P2
2021/03/26 00:03:09;;;;;;;29.02;12.82;;;;;;;;;;10261736;28;20771;-65
2021/03/26 00:08:06;;;;;;;;;;;;;;;;;;10255780;28;20026;-65
2021/03/26 00:13:04;;;;;;;11.57;5.72;;;;;;;;;;10269333;28;20333;-65
2021/03/26 00:18:01;;;;;;;12.80;5.77;;;;;;;;;;10268688;28;20051;-65
2021/03/26 00:22:59;;;;;;;18.80;7.00;;;;;;;;;;10253136;28;20034;-63
2021/03/26 00:27:56;;;;;;;15.87;7.00;;;;;;;;;;10295717;28;20587;-65
2021/03/26 00:32:54;;;;;;;14.60;6.53;;;;;;;;;;10280968;28;20041;-63
2021/03/26 00:37:51;;;;;;;13.20;6.13;;;;;;;;;;10263809;28;20042;-65
2021/03/26 00:42:49;;;;;;;18.33;6.53;;;;;;;;;;10240185;28;20492;-64
2021/03/26 00:47:47;;;;;;;14.93;5.93;;;;;;;;;;10239814;28;20083;-66
2021/03/26 00:52:45;;;;;;;15.07;5.33;;;;;;;;;;10260134;28;20073;-66
2021/03/26 00:57:42;;;;;;;11.00;5.10;;;;;;;;;;10260493;28;20195;-65
2021/03/26 01:02:40;;;;;;;11.30;5.23;;;;;;;;;;10273647;28;20041;-66
2021/03/26 01:07:38;;;;;;;10.27;4.63;;;;;;;;;;10287488;28;20033;-64
2021/03/26 01:12:36;;;;;;;8.10;4.85;;;;;;;;;;10251797;28;20069;-65
2021/03/26 01:17:34;;;;;;;9.18;4.43;;;;;;;;;;10263517;28;20029;-66
2021/03/26 01:22:31;;;;;;;11.57;5.50;;;;;;;;;;10272810;28;20028;-66
2021/03/26 01:27:34;;;;;;;10.27;4.88;;;;;;;;;;10275400;28;20035;-66
2021/03/26 01:32:32;;;;;;;9.88;4.60;;;;;;;;;;10295704;28;20067;-66
2021/03/26 01:37:30;;;;;;;6.87;4.27;;;;;;;;;;10276655;28;20052;-66
2021/03/26 01:42:30;;;;;;;14.00;4.97;;;;;;;;;;10291563;28;20500;-65
2021/03/26 01:47:29;;;;;;;16.33;5.22;;;;;;;;;;10291912;28;20077;-66
2021/03/26 01:52:26;;;;;;;13.30;4.90;;;;;;;;;;10268233;28;20572;-65
2021/03/26 01:57:24;;;;;;;14.23;6.60;;;;;;;;;;10309587;28;20044;-65
2021/03/26 02:02:28;;;;;;;21.40;8.18;;;;;;;;;;10279585;28;21753;-65
2021/03/26 02:07:44;;;;;;;17.35;8.02;;;;;;;;;;10308334;28;20634;-66
2021/03/26 02:12:53;;;;;;;12.25;5.50;;;;;;;;;;10293551;28;20040;-67
2021/03/26 02:17:50;;;;;;;13.50;5.90;;;;;;;;;;10272524;28;20041;-66
2021/03/26 02:22:55;;;;;;;17.25;7.97;;;;;;;;;;10289707;28;20388;-67
2021/03/26 02:27:53;;;;;;;21.38;8.50;;;;;;;;;;10301658;28;20160;-67
2021/03/26 02:32:51;;;;;;;12.93;6.07;;;;;;;;;;10299705;28;20029;-67
2021/03/26 02:38:04;;;;;;;12.23;6.25;;;;;;;;;;10293322;28;20493;-68
2021/03/26 02:43:15;;;;;;;15.07;6.95;;;;;;;;;;10303749;28;20526;-66
2021/03/26 02:48:17;;;;;;;19.38;6.93;;;;;;;;;;10292020;28;20186;-68
2021/03/26 02:53:18;;;;;;;7.30;4.03;;;;;;;;;;10286067;28;20041;-67
2021/03/26 02:58:37;;;;;;;13.73;5.55;;;;;;;;;;10284354;28;20029;-65
2021/03/26 03:03:37;;;;;;;14.75;6.70;;;;;;;;;;10304084;28;20541;-66
2021/03/26 03:08:37;;;;;;;13.85;7.53;;;;;;;;;;10285105;28;20060;-67
2021/03/26 03:13:45;;;;;;;17.20;6.72;;;;;;;;;;10295122;28;20036;-66
2021/03/26 03:19:12;;;;;;;15.50;6.43;;;;;;;;;;10288673;28;20037;-67
2021/03/26 03:24:19;;;;;;;12.68;6.85;;;;;;;;;;10293247;28;20045;-68
2021/03/26 03:29:39;;;;;;;18.27;7.70;;;;;;;;;;10307307;28;21479;-65
2021/03/26 03:35:12;;;;;;;19.02;9.27;;;;;;;;;;10274527;28;20717;-66
2021/03/26 03:40:16;;;;;;;23.25;8.57;;;;;;;;;;10299592;28;20060;-67
2021/03/26 03:45:16;;;;;;;20.25;8.65;;;;;;;;;;10294358;28;20048;-67
2021/03/26 03:50:19;;;;;;;23.60;9.32;;;;;;;;;;10291446;28;20116;-67
2021/03/26 03:55:29;;;;;;;26.45;10.35;;;;;;;;;;10307485;28;20494;-68
2021/03/26 04:00:37;;;;;;;25.98;9.75;;;;;;;;;;10272650;28;20078;-69
2021/03/26 04:05:50;;;;;;;34.65;14.02;;;;;;;;;;10289345;28;21735;-66
2021/03/26 04:11:05;;;;;;;23.10;9.52;;;;;;;;;;10311339;28;20037;-66
2021/03/26 04:16:04;;;;;;;29.58;11.95;;;;;;;;;;10304468;28;20451;-66
2021/03/26 04:21:08;;;;;;;17.90;9.48;;;;;;;;;;10292901;28;20090;-67
2021/03/26 04:26:24;;;;;;;35.00;12.13;;;;;;;;;;10306018;28;20144;-66
2021/03/26 04:31:45;;;;;;;26.70;12.25;;;;;;;;;;10313836;28;20065;-65
2021/03/26 04:36:57;;;;;;;40.50;13.63;;;;;;;;;;10309543;28;20423;-66
2021/03/26 04:42:13;;;;;;;25.08;10.98;;;;;;;;;;10312088;28;20302;-67
2021/03/26 04:47:20;;;;;;;27.88;10.15;;;;;;;;;;10283063;28;20029;-66
2021/03/26 04:52:40;;;;;;;;;;;;;;;;;;10294990;28;20124;-67
2021/03/26 04:57:47;;;;;;;26.08;13.02;;;;;;;;;;10320391;28;19924;-65
2021/03/26 05:02:57;;;;;;;44.17;15.68;;;;;;;;;;10283267;28;20791;-67
2021/03/26 05:08:05;;;;;;;47.45;18.90;;;;;;;;;;10274719;28;20033;-67
2021/03/26 05:13:08;;;;;;;41.85;17.10;;;;;;;;;;10312812;28;20033;-67
2021/03/26 05:18:19;;;;;;;38.60;15.45;;;;;;;;;;10285690;28;20045;-66
2021/03/26 05:23:20;;;;;;;42.55;16.65;;;;;;;;;;10302524;28;20037;-67
2021/03/26 05:28:29;;;;;;;39.63;18.50;;;;;;;;;;10318083;28;20036;-67
2021/03/26 05:33:42;;;;;;;43.35;17.70;;;;;;;;;;10301175;28;20103;-67
2021/03/26 05:38:59;;;;;;;39.67;16.98;;;;;;;;;;10275375;28;20091;-66
2021/03/26 05:44:33;;;;;;;36.00;15.80;;;;;;;;;;10297566;28;20515;-66
2021/03/26 05:49:48;;;;;;;46.90;17.90;;;;;;;;;;10288250;28;20398;-66
2021/03/26 05:55:13;;;;;;;47.33;18.42;;;;;;;;;;10288020;28;20082;-67
2021/03/26 06:00:30;;;;;;;45.60;19.42;;;;;;;;;;10290079;28;20056;-65
2021/03/26 06:06:14;;;;;;;43.97;20.02;;;;;;;;;;10307232;28;20037;-67
2021/03/26 06:11:33;;;;;;;35.50;14.10;;;;;;;;;;10296987;28;20459;-67
2021/03/26 06:17:07;;;;;;;47.28;19.67;;;;;;;;;;10274826;28;20034;-66
2021/03/26 06:22:42;;;;;;;50.33;19.15;;;;;;;;;;10279664;28;20041;-65
2021/03/26 06:28:23;;;;;;;43.03;18.38;;;;;;;;;;10282926;28;20041;-66
2021/03/26 06:33:20;;;;;;;46.72;18.58;;;;;;;;;;10281977;28;20593;-66
2021/03/26 06:38:31;;;;;;;47.87;20.77;;;;;;;;;;10306048;28;20029;-65
2021/03/26 06:43:32;;;;;;;42.53;19.35;;;;;;;;;;10313672;28;20072;-67
2021/03/26 06:48:35;;;;;;;42.70;19.08;;;;;;;;;;10307094;28;20037;-66
2021/03/26 06:53:39;;;;;;;42.92;17.33;;;;;;;;;;10268575;28;20033;-66
2021/03/26 06:58:36;;;;;;;28.02;13.13;;;;;;;;;;10320614;28;20449;-66
2021/03/26 07:03:36;;;;;;;44.77;19.23;;;;;;;;;;10331709;28;20718;-66
2021/03/26 07:08:46;;;;;;;44.42;18.10;;;;;;;;;;10340980;28;20534;-66
2021/03/26 07:14:04;;;;;;;30.88;14.00;;;;;;;;;;10345595;28;20083;-66
2021/03/26 07:19:08;;;;;;;38.17;15.65;;;;;;;;;;10315727;28;20037;-66
2021/03/26 07:24:05;;;;;;;39.28;18.48;;;;;;;;;;10328101;28;20047;-65
2021/03/26 07:29:28;;;;;;;42.67;18.57;;;;;;;;;;10350744;28;20045;-67
2021/03/26 07:34:34;;;;;;;39.33;16.58;;;;;;;;;;10338409;28;20041;-66
2021/03/26 07:39:31;;;;;;;32.37;15.03;;;;;;;;;;10340341;28;20048;-67
2021/03/26 07:44:43;;;;;;;40.80;17.63;;;;;;;;;;10331864;28;20071;-66
2021/03/26 07:49:43;;;;;;;41.28;17.08;;;;;;;;;;10295491;28;20042;-66
2021/03/26 07:54:44;;;;;;;37.75;17.35;;;;;;;;;;10269194;28;20463;-66
2021/03/26 07:59:59;;;;;;;29.15;14.00;;;;;;;;;;10339261;28;20032;-66
2021/03/26 08:05:19;;;;;;;27.60;12.18;;;;;;;;;;10333193;28;20044;-63
2021/03/26 08:10:16;;;;;;;37.70;16.35;;;;;;;;;;10322570;28;20119;-60
2021/03/26 08:15:14;;;;;;;38.97;17.53;;;;;;;;;;10336641;28;20626;-63
2021/03/26 08:20:23;;;;;;;35.40;15.50;;;;;;;;;;10284816;28;20726;-64
2021/03/26 08:25:39;;;;;;;40.70;18.65;;;;;;;;;;10317797;28;20041;-63
2021/03/26 08:30:49;;;;;;;37.47;15.18;;;;;;;;;;10300040;28;20065;-62
2021/03/26 08:36:03;;;;;;;27.90;13.43;;;;;;;;;;10278441;28;20040;-62
2021/03/26 08:41:30;;;;;;;28.85;13.38;;;;;;;;;;10284609;28;20059;-63
2021/03/26 08:46:36;;;;;;;25.33;10.98;;;;;;;;;;10305868;28;20507;-64
2021/03/26 08:51:39;;;;;;;30.63;11.45;;;;;;;;;;10318689;28;20040;-63
2021/03/26 08:56:49;;;;;;;19.80;9.82;;;;;;;;;;10293755;28;20043;-65
2021/03/26 09:02:05;;;;;;;23.83;10.32;;;;;;;;;;10324940;28;20410;-64
2021/03/26 09:07:10;;;;;;;18.92;8.77;;;;;;;;;;10293200;28;20047;-64
2021/03/26 09:12:26;;;;;;;17.65;8.88;;;;;;;;;;10329836;28;20051;-64
2021/03/26 09:17:26;;;;;;;19.95;7.05;;;;;;;;;;10344118;28;20052;-63
2021/03/26 09:22:42;;;;;;;26.90;10.35;;;;;;;;;;10320238;28;20309;-62
2021/03/26 09:27:57;;;;;;;21.70;9.15;;;;;;;;;;10331587;28;20135;-63
2021/03/26 09:33:03;;;;;;;23.33;9.38;;;;;;;;;;10298565;28;20139;-61
2021/03/26 09:38:04;;;;;;;24.60;11.75;;;;;;;;;;10317380;28;20033;-62
2021/03/26 09:43:03;;;;;;;24.23;11.00;;;;;;;;;;10323228;28;20053;-60
2021/03/26 09:48:19;;;;;;;21.13;9.83;;;;;;;;;;10339536;28;20044;-61
2021/03/26 09:53:17;;;;;;;24.50;11.20;;;;;;;;;;10340410;28;20035;-62
2021/03/26 09:58:18;;;;;;;20.80;9.85;;;;;;;;;;10328882;28;20032;-62
2021/03/26 10:03:34;;;;;;;17.67;8.63;;;;;;;;;;10345645;28;20041;-62
2021/03/26 10:14:01;;;;;;;25.05;10.98;;;;;;;;;;10335608;28;20533;-62
2021/03/26 10:19:01;;;;;;;20.75;9.80;;;;;;;;;;10324273;28;20029;-62
2021/03/26 10:23:59;;;;;;;21.70;9.95;;;;;;;;;;10287570;28;20550;-61
2021/03/26 10:29:00;;;;;;;22.57;11.00;;;;;;;;;;10311697;28;20182;-61
2021/03/26 10:34:00;;;;;;;20.13;10.05;;;;;;;;;;10289440;28;20048;-63
2021/03/26 10:39:06;;;;;;;25.02;11.15;;;;;;;;;;10343368;28;20504;-62
2021/03/26 10:44:35;;;;;;;20.60;11.70;;;;;;;;;;10324366;28;20414;-63
2021/03/26 10:49:38;;;;;;;26.75;13.73;;;;;;;;;;10298515;28;20670;-62
2021/03/26 10:54:47;;;;;;;23.63;9.80;;;;;;;;;;10350414;28;20522;-62
2021/03/26 10:59:53;;;;;;;24.02;13.38;;;;;;;;;;10353691;28;20029;-64
2021/03/26 11:05:14;;;;;;;24.75;12.02;;;;;;;;;;10357233;28;20043;-62
2021/03/26 11:10:13;;;;;;;26.33;12.93;;;;;;;;;;10289295;28;20045;-61
2021/03/26 11:15:29;;;;;;;21.35;10.98;;;;;;;;;;10326421;28;20020;-62
2021/03/26 11:20:29;;;;;;;23.30;10.45;;;;;;;;;;10316411;28;20128;-62
2021/03/26 11:25:32;;;;;;;19.45;9.30;;;;;;;;;;10352482;28;20095;-63
2021/03/26 11:30:29;;;;;;;21.10;9.40;;;;;;;;;;10326322;28;20376;-63
2021/03/26 11:35:33;;;;;;;15.63;7.80;;;;;;;;;;10341393;28;20040;-63
2021/03/26 11:40:38;;;;;;;20.48;9.60;;;;;;;;;;10314195;28;20037;-63
2021/03/26 11:45:46;;;;;;;17.10;8.40;;;;;;;;;;10313824;28;20033;-64
2021/03/26 11:50:49;;;;;;;15.35;9.00;;;;;;;;;;10313598;28;20633;-62
2021/03/26 11:56:05;;;;;;;16.58;6.43;;;;;;;;;;10256342;28;20423;-63
2021/03/26 12:01:08;;;;;;;18.75;9.13;;;;;;;;;;10246935;28;20030;-63
2021/03/26 12:06:05;;;;;;;16.65;8.13;;;;;;;;;;10292943;28;20045;-64
2021/03/26 12:11:12;;;;;;;15.53;7.93;;;;;;;;;;10277833;28;20506;-63
2021/03/26 12:16:21;;;;;;;13.80;6.75;;;;;;;;;;10322105;28;20502;-65
2021/03/26 12:21:24;;;;;;;11.10;5.38;;;;;;;;;;10298122;28;20032;-62
2021/03/26 12:26:22;;;;;;;7.57;3.92;;;;;;;;;;10291482;28;20052;-62
2021/03/26 12:31:35;;;;;;;12.40;5.00;;;;;;;;;;10303508;28;20091;-62
2021/03/26 12:36:41;;;;;;;9.07;5.15;;;;;;;;;;10271486;28;20127;-63
2021/03/26 12:41:38;;;;;;;7.32;4.22;;;;;;;;;;10299805;28;20503;-63
2021/03/26 12:46:50;;;;;;;10.23;4.07;;;;;;;;;;10289491;28;20053;-62
2021/03/26 12:51:52;;;;;;;8.55;3.97;;;;;;;;;;10283660;28;20041;-65
2021/03/26 12:56:49;;;;;;;7.03;3.55;;;;;;;;;;10291448;28;20467;-63
2021/03/26 13:01:53;;;;;;;8.10;4.20;;;;;;;;;;10283725;28;20048;-62
2021/03/26 13:06:54;;;;;;;4.82;2.58;;;;;;;;;;10275424;28;20094;-62
2021/03/26 13:12:05;;;;;;;6.22;3.47;;;;;;;;;;10310629;28;20037;-62
2021/03/26 13:17:03;;;;;;;7.85;3.97;;;;;;;;;;10288066;28;20033;-63
2021/03/26 13:22:03;;;;;;;6.67;2.77;;;;;;;;;;10300542;28;20040;-62
2021/03/26 13:27:30;;;;;;;9.80;3.30;;;;;;;;;;10334153;28;20057;-65
2021/03/26 13:32:54;;;;;;;5.82;2.78;;;;;;;;;;10283995;28;20044;-62
2021/03/26 13:37:55;;;;;;;11.25;3.70;;;;;;;;;;10266921;28;20105;-63
2021/03/26 13:43:00;;;;;;;2.83;2.03;;;;;;;;;;10295024;28;20076;-63
2021/03/26 13:48:09;;;;;;;4.55;1.90;;;;;;;;;;10274525;28;20593;-64
2021/03/26 13:53:16;;;;;;;6.22;3.65;;;;;;;;;;10283913;28;20342;-63
2021/03/26 13:58:33;;;;;;;7.60;3.25;;;;;;;;;;10294460;28;20076;-61
2021/03/26 14:03:36;;;;;;;7.30;4.43;;;;;;;;;;10287207;28;20122;-62
2021/03/26 14:08:40;;;;;;;7.72;3.63;;;;;;;;;;10309857;28;20179;-64
2021/03/26 14:13:39;;;;;;;4.75;3.17;;;;;;;;;;10326096;28;20041;-61
2021/03/26 14:18:39;;;;;;;8.85;4.28;;;;;;;;;;10288069;28;20526;-62
2021/03/26 14:23:37;;;;;;;11.13;5.65;;;;;;;;;;10313884;28;20079;-60
2021/03/26 14:28:38;;;;;;;58.72;14.77;;;;;;;;;;10290681;28;20068;-62
2021/03/26 14:33:35;;;;;;;97.30;29.23;;;;;;;;;;10313108;28;20041;-62
2021/03/26 14:38:36;;;;;;;39.70;18.67;;;;;;;;;;10305378;28;21355;-62
2021/03/26 14:43:34;;;;;;;29.23;16.15;;;;;;;;;;10351829;22;20055;-64
2021/03/26 14:48:37;;;;;;;18.13;13.30;;;;;;;;;;10369634;28;20032;-65
2021/03/26 14:53:41;;;;;;;23.40;12.48;;;;;;;;;;10385753;28;20077;-64
2021/03/26 14:58:53;;;;;;;25.52;13.45;;;;;;;;;;10401360;28;20506;-64
2021/03/26 15:03:53;;;;;;;16.05;12.43;;;;;;;;;;10400287;28;20032;-65
2021/03/26 15:09:13;;;;;;;17.85;13.15;;;;;;;;;;10402884;28;20051;-65
2021/03/26 15:14:19;;;;;;;19.13;12.45;;;;;;;;;;10412873;28;20040;-65
2021/03/26 15:19:20;;;;;;;16.42;12.88;;;;;;;;;;10399223;28;20475;-64
2021/03/26 15:24:21;;;;;;;15.57;11.02;;;;;;;;;;10396276;28;20044;-64
2021/03/26 15:29:25;;;;;;;15.23;10.70;;;;;;;;;;10404424;28;20596;-64
2021/03/26 15:34:22;;;;;;;17.10;10.55;;;;;;;;;;10390981;28;20036;-65
2021/03/26 15:39:32;;;;;;;8.00;3.60;;;;;;;;;;10382017;28;20547;-65
2021/03/26 15:44:31;;;;;;;6.82;3.20;;;;;;;;;;10394268;28;20040;-65
2021/03/26 15:49:33;;;;;;;6.50;3.35;;;;;;;;;;10388016;28;20036;-64
2021/03/26 15:54:42;;;;;;;4.95;3.10;;;;;;;;;;10412358;28;20051;-64
2021/03/26 15:59:50;;;;;;;6.63;4.32;;;;;;;;;;10398003;28;20501;-64
2021/03/26 16:04:58;;;;;;;11.25;4.72;;;;;;;;;;10403300;28;20024;-63
2021/03/26 16:10:01;;;;;;;9.37;3.77;;;;;;;;;;10379305;28;20081;-64
2021/03/26 16:15:22;;;;;;;5.63;3.65;;;;;;;;;;10398552;28;20398;-63
2021/03/26 16:20:39;;;;;;;8.13;4.75;;;;;;;;;;10343336;28;20509;-64
2021/03/26 16:25:46;;;;;;;6.57;3.33;;;;;;;;;;10399523;28;20507;-64
2021/03/26 16:31:02;;;;;;;9.27;3.40;;;;;;;;;;10376074;28;20497;-66
2021/03/26 16:36:09;;;;;;;6.45;4.18;;;;;;;;;;10400344;28;20030;-64
2021/03/26 16:41:25;;;;;;;6.50;4.22;;;;;;;;;;10397416;28;20036;-63
2021/03/26 16:46:27;;;;;;;7.28;4.20;;;;;;;;;;10385327;28;20040;-64
2021/03/26 16:51:43;;;;;;;8.77;4.38;;;;;;;;;;10407896;28;20047;-64
2021/03/26 16:56:41;;;;;;;7.15;4.38;;;;;;;;;;10410259;28;20032;-62
2021/03/26 17:01:50;;;;;;;3.80;3.30;;;;;;;;;;10396386;28;20044;-62
2021/03/26 17:06:47;;;;;;;4.95;4.13;;;;;;;;;;10406432;28;21518;-61
2021/03/26 17:12:03;;;;;;;8.57;3.90;;;;;;;;;;10394159;28;20040;-62
2021/03/26 17:17:10;;;;;;;5.93;4.10;;;;;;;;;;10394877;28;20039;-62
2021/03/26 17:22:19;;;;;;;8.20;3.72;;;;;;;;;;10388993;28;20047;-63
2021/03/26 17:27:16;;;;;;;;;;;;;;;;;;10390178;28;20043;-62
2021/03/26 17:32:32;;;;;;;4.18;2.70;;;;;;;;;;10396043;28;19912;-64
2021/03/26 17:37:48;;;;;;;6.45;4.57;;;;;;;;;;10395541;28;20051;-63
2021/03/26 17:43:04;;;;;;;5.47;4.25;;;;;;;;;;10397745;28;20048;-64
2021/03/26 17:48:10;;;;;;;3.50;2.53;;;;;;;;;;10397179;28;20055;-64
2021/03/26 17:53:08;;;;;;;6.30;3.85;;;;;;;;;;10398184;28;20446;-64
2021/03/26 17:58:18;;;;;;;6.83;3.70;;;;;;;;;;10392009;28;20077;-62
2021/03/26 18:03:25;;;;;;;5.25;4.20;;;;;;;;;;10392419;28;20035;-63
2021/03/26 18:08:29;;;;;;;23.60;11.48;;;;;;;;;;10377534;28;20032;-64
2021/03/26 18:13:46;;;;;;;26.02;12.20;;;;;;;;;;10380382;28;20043;-64
2021/03/26 18:19:02;;;;;;;12.05;5.82;;;;;;;;;;10392471;28;20051;-63
2021/03/26 18:24:17;;;;;;;11.15;6.80;;;;;;;;;;10391569;28;20498;-64
2021/03/26 18:29:22;;;;;;;15.23;8.52;;;;;;;;;;10406731;28;20020;-64
2021/03/26 18:34:34;;;;;;;7.32;5.20;;;;;;;;;;10423949;28;20044;-62
2021/03/26 18:39:36;;;;;;;13.10;4.63;;;;;;;;;;10406054;28;20089;-64
2021/03/26 18:44:37;;;;;;;10.25;6.50;;;;;;;;;;10397290;28;20086;-62
2021/03/26 18:49:43;;;;;;;5.65;3.88;;;;;;;;;;10393030;28;20101;-63
2021/03/26 18:54:59;;;;;;;7.15;4.53;;;;;;;;;;10383271;28;20048;-64
2021/03/26 19:00:02;;;;;;;11.48;5.40;;;;;;;;;;10381793;28;20036;-63
2021/03/26 19:05:18;;;;;;;10.68;4.65;;;;;;;;;;10373120;28;20048;-62
2021/03/26 19:10:19;;;;;;;6.00;3.83;;;;;;;;;;10394396;28;20390;-64
2021/03/26 19:15:19;;;;;;;6.95;4.72;;;;;;;;;;10377992;28;20030;-64
2021/03/26 19:20:30;;;;;;;5.40;3.83;;;;;;;;;;10411925;28;20390;-64
2021/03/26 19:25:31;;;;;;;10.32;4.55;;;;;;;;;;10390310;28;20509;-64
2021/03/26 19:30:55;;;;;;;12.98;5.80;;;;;;;;;;10385784;28;20042;-64
2021/03/26 19:36:15;;;;;;;17.65;8.68;;;;;;;;;;10383993;28;20132;-63
2021/03/26 19:41:15;;;;;;;13.23;6.40;;;;;;;;;;10353160;28;20101;-63
2021/03/26 19:46:19;;;;;;;20.98;7.80;;;;;;;;;;10379651;28;20040;-63
2021/03/26 19:51:22;;;;;;;21.75;10.07;;;;;;;;;;10411614;28;20517;-63
2021/03/26 19:56:22;;;;;;;14.57;8.48;;;;;;;;;;10388376;28;20416;-64
2021/03/26 20:01:23;;;;;;;20.88;10.20;;;;;;;;;;10389625;28;20122;-64
2021/03/26 20:06:39;;;;;;;25.45;10.55;;;;;;;;;;10407530;28;20612;-64
2021/03/26 20:11:51;;;;;;;15.18;9.45;;;;;;;;;;10376728;28;20028;-64
2021/03/26 20:16:55;;;;;;;15.10;9.18;;;;;;;;;;10409040;28;20060;-61
2021/03/26 20:21:58;;;;;;;14.05;7.80;;;;;;;;;;10388095;28;20078;-63
2021/03/26 20:26:59;;;;;;;9.00;5.90;;;;;;;;;;10400175;28;20040;-63
2021/03/26 20:32:15;;;;;;;14.40;8.13;;;;;;;;;;10400272;28;20041;-66
2021/03/26 20:37:15;;;;;;;12.02;7.35;;;;;;;;;;10394955;28;20426;-64
2021/03/26 20:42:37;;;;;;;9.73;6.18;;;;;;;;;;10414066;28;20039;-62
2021/03/26 20:47:47;;;;;;;16.70;9.50;;;;;;;;;;10389964;28;20028;-64
2021/03/26 20:52:45;;;;;;;9.98;6.75;;;;;;;;;;10415548;28;20123;-65
2021/03/26 20:57:42;;;;;;;;;;;;;;;;;;10407193;28;20056;-64
2021/03/26 21:02:49;;;;;;;10.73;7.00;;;;;;;;;;10402270;28;19920;-61
2021/03/26 21:07:51;;;;;;;11.23;5.25;;;;;;;;;;10402685;28;20455;-61
2021/03/26 21:13:09;;;;;;;15.57;8.10;;;;;;;;;;10411585;28;20382;-61
2021/03/26 21:18:10;;;;;;;13.85;6.30;;;;;;;;;;10365361;28;20158;-63
2021/03/26 21:23:09;;;;;;;17.00;8.88;;;;;;;;;;10385318;28;20050;-62
2021/03/26 21:28:12;;;;;;;14.23;6.38;;;;;;;;;;10413010;28;20032;-63
2021/03/26 21:33:22;;;;;;;20.85;10.55;;;;;;;;;;10382858;28;20032;-62
2021/03/26 21:38:23;;;;;;;12.45;7.30;;;;;;;;;;10388905;28;20036;-63
2021/03/26 21:43:21;;;;;;;17.02;11.02;;;;;;;;;;10411066;28;20040;-62
2021/03/26 21:48:21;;;;;;;17.63;10.93;;;;;;;;;;10395788;28;20024;-63
2021/03/26 21:53:28;;;;;;;8.52;5.75;;;;;;;;;;10411575;28;20036;-63
2021/03/26 21:58:47;;;;;;;15.50;7.68;;;;;;;;;;10419166;28;20078;-65
2021/03/26 22:03:45;;;;;;;12.73;6.57;;;;;;;;;;10422294;28;20032;-63
2021/03/26 22:09:02;;;;;;;13.20;5.23;;;;;;;;;;10404177;28;20031;-64
2021/03/26 22:14:08;;;;;;;7.90;3.97;;;;;;;;;;10356021;28;20032;-62
2021/03/26 22:19:08;;;;;;;8.75;5.03;;;;;;;;;;10431028;28;20034;-64
2021/03/26 22:24:09;;;;;;;7.00;4.35;;;;;;;;;;10413455;28;20032;-63
2021/03/26 22:29:24;;;;;;;9.70;5.22;;;;;;;;;;10415334;28;20032;-64
2021/03/26 22:34:27;;;;;;;5.15;3.53;;;;;;;;;;10433438;28;20050;-62
2021/03/26 22:39:25;;;;;;;6.97;4.25;;;;;;;;;;10409829;28;20032;-64
2021/03/26 22:44:25;;;;;;;8.50;3.53;;;;;;;;;;10417997;28;20039;-63
2021/03/26 22:49:22;;;;;;;5.95;3.60;;;;;;;;;;10417142;28;20032;-64
2021/03/26 22:54:20;;;;;;;5.03;3.30;;;;;;;;;;10422626;28;20028;-64
2021/03/26 22:59:29;;;;;;;3.63;3.13;;;;;;;;;;10411855;28;20094;-64
2021/03/26 23:04:33;;;;;;;6.70;2.50;;;;;;;;;;10415391;28;20097;-64
2021/03/26 23:09:34;;;;;;;5.78;1.83;;;;;;;;;;10395048;28;20149;-63
2021/03/26 23:14:37;;;;;;;4.03;2.22;;;;;;;;;;10395696;28;20044;-64
2021/03/26 23:19:39;;;;;;;5.05;2.50;;;;;;;;;;10400444;28;20123;-64
2021/03/26 23:24:53;;;;;;;4.53;2.40;;;;;;;;;;10413745;28;20616;-63
2021/03/26 23:29:57;;;;;;;5.90;3.42;;;;;;;;;;10395367;28;20028;-63
2021/03/26 23:34:54;;;;;;;8.23;2.35;;;;;;;;;;10425697;28;20114;-63
2021/03/26 23:40:12;;;;;;;4.83;3.03;;;;;;;;;;10393272;28;20116;-63
2021/03/26 23:45:15;;;;;;;5.50;3.35;;;;;;;;;;10408858;28;20036;-63
2021/03/26 23:50:15;;;;;;;7.63;4.50;;;;;;;;;;10416924;28;20472;-63
2021/03/26 23:55:24;;;;;;;10.60;2.88;;;;;;;;;;10420110;28;20114;-63
